createdAt,value
2023-08-20T00:00:40.009Z,100.00
2023-08-20T00:01:44.550Z,100.00
2023-08-20T00:02:48.881Z,100.00
2023-08-20T00:03:53.394Z,100.00
2023-08-20T00:05:11.816Z,100.00
2023-08-20T00:06:21.465Z,100.00
2023-08-20T00:07:24.613Z,100.00
2023-08-20T00:08:29.048Z,100.00
2023-08-20T00:09:33.572Z,100.00
2023-08-20T00:10:52.011Z,100.00
2023-08-20T00:11:55.411Z,100.00
2023-08-20T00:12:59.761Z,100.00
2023-08-20T00:14:04.207Z,100.00
2023-08-20T00:15:08.746Z,100.00
2023-08-20T00:16:27.312Z,100.00
2023-08-20T00:17:30.965Z,100.00
2023-08-20T00:18:38.074Z,100.00
2023-08-20T00:19:39.765Z,100.00
2023-08-20T00:20:44.291Z,100.00
2023-08-20T00:21:48.662Z,100.00
2023-08-20T00:22:53.121Z,100.00
2023-08-20T00:23:57.687Z,100.00
2023-08-20T00:25:02.016Z,100.00
2023-08-20T00:26:06.558Z,100.00
2023-08-20T00:27:24.904Z,100.00
2023-08-20T00:28:28.364Z,100.00
2023-08-20T00:29:32.702Z,100.00
2023-08-20T00:30:40.179Z,100.00
2023-08-20T00:31:43.736Z,100.00
2023-08-20T00:32:48.259Z,100.00
2023-08-20T00:34:04.790Z,100.00
2023-08-20T00:34:57.112Z,100.00
2023-08-20T00:36:15.601Z,100.00
2023-08-20T00:37:18.921Z,100.00
2023-08-20T00:38:23.284Z,100.00
2023-08-20T00:39:30.741Z,100.00
2023-08-20T00:40:34.342Z,100.00
2023-08-20T00:41:38.869Z,100.00
2023-08-20T00:42:43.315Z,100.00
2023-08-20T00:43:47.659Z,100.00
2023-08-20T00:44:52.154Z,100.00
2023-08-20T00:45:56.784Z,100.00
2023-08-20T00:47:01.162Z,100.00
2023-08-20T00:48:05.644Z,100.00
2023-08-20T00:49:10.169Z,100.00
2023-08-20T00:50:14.515Z,100.00
2023-08-20T00:51:19.091Z,100.00
2023-08-20T00:52:23.570Z,100.00
2023-08-20T00:53:28.800Z,100.00
2023-08-20T00:54:32.438Z,100.00
2023-08-20T00:55:36.943Z,100.00
2023-08-20T00:56:41.416Z,100.00
2023-08-20T00:57:45.951Z,100.00
2023-08-20T00:58:50.344Z,100.00
2023-08-20T00:59:54.697Z,100.00
2023-08-20T01:00:59.155Z,100.00
2023-08-20T01:02:03.647Z,100.00
2023-08-20T01:03:08.172Z,100.00
2023-08-20T01:04:12.580Z,100.00
2023-08-20T01:05:17.053Z,100.00
2023-08-20T01:06:21.513Z,100.00
2023-08-20T01:07:25.922Z,100.00
2023-08-20T01:08:30.444Z,100.00
2023-08-20T01:09:34.921Z,100.00
2023-08-20T01:10:39.275Z,100.00
2023-08-20T01:11:46.821Z,100.00
2023-08-20T01:12:50.335Z,100.00
2023-08-20T01:13:54.813Z,100.00
2023-08-20T01:14:59.269Z,100.00
2023-08-20T01:16:03.798Z,100.00
2023-08-20T01:17:22.248Z,100.00
2023-08-20T01:18:25.760Z,100.00
2023-08-20T01:19:30.159Z,100.00
2023-08-20T01:20:34.680Z,100.00
2023-08-20T01:21:39.062Z,100.00
2023-08-20T01:22:43.435Z,100.00
2023-08-20T01:23:47.954Z,100.00
2023-08-20T01:24:52.363Z,100.00
2023-08-20T01:25:56.876Z,100.00
2023-08-20T01:27:04.257Z,100.00
2023-08-20T01:28:07.861Z,100.00
2023-08-20T01:29:12.269Z,100.00
2023-08-20T01:30:16.779Z,100.00
2023-08-20T01:31:21.207Z,100.00
2023-08-20T01:32:25.674Z,100.00
2023-08-20T01:33:30.201Z,100.00
2023-08-20T01:34:34.563Z,100.00
2023-08-20T01:35:39.106Z,100.00
2023-08-20T01:36:43.570Z,100.00
2023-08-20T01:37:47.923Z,100.00
2023-08-20T01:38:52.394Z,100.00
2023-08-20T01:40:10.940Z,100.00
2023-08-20T01:41:14.511Z,100.00
2023-08-20T01:42:18.838Z,100.00
2023-08-20T01:43:23.315Z,100.00
2023-08-20T01:44:27.781Z,100.00
2023-08-20T01:45:32.147Z,100.00
2023-08-20T01:46:36.631Z,100.00
2023-08-20T01:47:41.113Z,100.00
2023-08-20T01:48:45.441Z,100.00
2023-08-20T01:49:49.883Z,100.00
2023-08-20T01:50:54.385Z,100.00
2023-08-20T01:51:58.844Z,100.00
2023-08-20T01:53:03.308Z,100.00
2023-08-20T01:54:07.770Z,100.00
2023-08-20T01:55:12.369Z,100.00
2023-08-20T01:56:16.869Z,100.00
2023-08-20T01:57:21.389Z,100.00
2023-08-20T01:58:25.692Z,100.00
2023-08-20T01:59:30.208Z,100.00
2023-08-20T02:00:34.629Z,100.00
2023-08-20T02:01:39.100Z,100.00
2023-08-20T02:02:43.566Z,100.00
2023-08-20T02:03:47.982Z,100.00
2023-08-20T02:04:55.495Z,100.00
2023-08-20T02:05:58.931Z,100.00
2023-08-20T02:07:03.505Z,100.00
2023-08-20T02:08:07.850Z,100.00
2023-08-20T02:09:26.397Z,100.00
2023-08-20T02:10:29.649Z,100.00
2023-08-20T02:11:34.028Z,100.00
2023-08-20T02:12:38.528Z,100.00
2023-08-20T02:13:43.047Z,100.00
2023-08-20T02:14:47.395Z,100.00
2023-08-20T02:15:51.919Z,100.00
2023-08-20T02:16:56.441Z,100.00
2023-08-20T02:18:00.977Z,100.00
2023-08-20T02:19:05.303Z,100.00
2023-08-20T02:20:09.771Z,100.00
2023-08-20T02:21:14.256Z,100.00
2023-08-20T02:22:18.603Z,100.00
2023-08-20T02:23:29.153Z,100.00
2023-08-20T02:24:32.227Z,100.00
2023-08-20T02:25:36.676Z,100.00
2023-08-20T02:26:41.028Z,100.00
2023-08-20T02:27:45.456Z,100.00
2023-08-20T02:28:49.867Z,100.00
2023-08-20T02:29:54.365Z,100.00
2023-08-20T02:30:59.018Z,100.00
2023-08-20T02:32:03.187Z,100.00
2023-08-20T02:33:07.715Z,100.00
2023-08-20T02:34:11.987Z,100.00
2023-08-20T02:35:16.435Z,100.00
2023-08-20T02:36:20.874Z,100.00
2023-08-20T02:37:25.269Z,100.00
2023-08-20T02:38:29.795Z,100.00
2023-08-20T02:39:34.218Z,100.00
2023-08-20T02:40:38.780Z,100.00
2023-08-20T02:41:43.200Z,100.00
2023-08-20T02:42:47.659Z,100.00
2023-08-20T02:43:52.136Z,100.00
2023-08-20T02:44:56.669Z,100.00
2023-08-20T02:46:01.118Z,100.00
2023-08-20T02:47:05.622Z,100.00
2023-08-20T02:48:16.133Z,100.00
2023-08-20T02:49:19.180Z,100.00
2023-08-20T02:50:23.640Z,100.00
2023-08-20T02:51:28.068Z,100.00
2023-08-20T02:52:32.416Z,100.00
2023-08-20T02:53:50.998Z,100.00
2023-08-20T02:54:54.599Z,100.00
2023-08-20T02:55:58.847Z,100.00
2023-08-20T02:57:06.343Z,100.00
2023-08-20T02:58:09.904Z,100.00
2023-08-20T02:59:14.332Z,100.00
2023-08-20T03:00:18.654Z,100.00
2023-08-20T03:01:23.246Z,100.00
2023-08-20T03:02:27.567Z,100.00
2023-08-20T03:03:32.047Z,100.00
2023-08-20T03:04:36.560Z,100.00
2023-08-20T03:05:40.912Z,100.00
2023-08-20T03:06:45.240Z,100.00
2023-08-20T03:07:49.727Z,100.00
2023-08-20T03:08:54.127Z,100.00
2023-08-20T03:09:58.636Z,100.00
2023-08-20T03:11:06.043Z,100.00
2023-08-20T03:12:09.578Z,100.00
2023-08-20T03:13:14.029Z,100.00
2023-08-20T03:14:21.442Z,100.00
2023-08-20T03:15:25.012Z,100.00
2023-08-20T03:16:29.458Z,100.00
2023-08-20T03:17:34.231Z,100.00
2023-08-20T03:18:38.210Z,100.00
2023-08-20T03:19:42.602Z,100.00
2023-08-20T03:20:47.147Z,100.00
2023-08-20T03:21:51.536Z,100.00
2023-08-20T03:22:56.075Z,100.00
2023-08-20T03:24:00.489Z,100.00
2023-08-20T03:25:07.886Z,100.00
2023-08-20T03:26:11.457Z,100.00
2023-08-20T03:27:15.858Z,100.00
2023-08-20T03:28:20.288Z,100.00
2023-08-20T03:29:24.752Z,100.00
2023-08-20T03:30:29.209Z,100.00
2023-08-20T03:31:33.735Z,100.00
2023-08-20T03:32:38.149Z,100.00
2023-08-20T03:33:42.579Z,100.00
2023-08-20T03:34:47.012Z,100.00
2023-08-20T03:35:51.353Z,100.00
2023-08-20T03:36:55.890Z,100.00
2023-08-20T03:38:00.293Z,100.00
2023-08-20T03:39:04.682Z,100.00
2023-08-20T03:40:09.156Z,100.00
2023-08-20T03:41:13.657Z,100.00
2023-08-20T03:42:18.088Z,100.00
2023-08-20T03:43:25.605Z,100.00
2023-08-20T03:44:29.305Z,100.00
2023-08-20T03:45:33.718Z,100.00
2023-08-20T03:46:38.008Z,100.00
2023-08-20T03:47:42.494Z,100.00
2023-08-20T03:48:46.995Z,100.00
2023-08-20T03:49:51.455Z,100.00
2023-08-20T03:50:55.886Z,100.00
2023-08-20T03:52:00.204Z,100.00
2023-08-20T03:53:04.795Z,100.00
2023-08-20T03:54:09.098Z,100.00
2023-08-20T03:55:13.662Z,100.00
2023-08-20T03:56:18.045Z,100.00
2023-08-20T03:57:22.386Z,100.00
2023-08-20T03:58:26.811Z,100.00
2023-08-20T03:59:31.364Z,100.00
2023-08-20T04:00:35.811Z,100.00
2023-08-20T04:01:40.289Z,100.00
2023-08-20T04:02:44.741Z,100.00
2023-08-20T04:03:49.140Z,100.00
2023-08-20T04:04:53.508Z,100.00
2023-08-20T04:05:57.895Z,100.00
2023-08-20T04:07:02.414Z,100.00
2023-08-20T04:08:06.847Z,100.00
2023-08-20T04:09:11.231Z,100.00
2023-08-20T04:10:15.746Z,100.00
2023-08-20T04:11:20.183Z,100.00
2023-08-20T04:12:24.723Z,100.00
2023-08-20T04:13:29.034Z,100.00
2023-08-20T04:14:33.552Z,100.00
2023-08-20T04:15:38.088Z,100.00
2023-08-20T04:16:42.447Z,100.00
2023-08-20T04:17:46.859Z,100.00
2023-08-20T04:18:51.204Z,100.00
2023-08-20T04:19:55.810Z,100.00
2023-08-20T04:21:00.137Z,100.00
2023-08-20T04:22:04.588Z,100.00
2023-08-20T04:23:08.989Z,100.00
2023-08-20T04:24:13.509Z,100.00
2023-08-20T04:25:17.802Z,100.00
2023-08-20T04:26:22.171Z,100.00
2023-08-20T04:27:26.706Z,100.00
2023-08-20T04:28:31.119Z,100.00
2023-08-20T04:29:38.563Z,100.00
2023-08-20T04:30:41.973Z,100.00
2023-08-20T04:31:46.548Z,100.00
2023-08-20T04:32:50.934Z,100.00
2023-08-20T04:33:55.256Z,100.00
2023-08-20T04:34:59.737Z,100.00
2023-08-20T04:36:04.194Z,100.00
2023-08-20T04:37:08.671Z,100.00
2023-08-20T04:38:19.096Z,100.00
2023-08-20T04:39:22.263Z,100.00
2023-08-20T04:40:26.652Z,100.00
2023-08-20T04:41:31.127Z,100.00
2023-08-20T04:42:35.552Z,100.00
2023-08-20T04:43:39.941Z,100.00
2023-08-20T04:44:44.379Z,100.00
2023-08-20T04:45:48.823Z,100.00
2023-08-20T04:46:53.194Z,100.00
2023-08-20T04:48:11.583Z,100.00
2023-08-20T04:49:20.961Z,100.00
2023-08-20T04:50:23.984Z,100.00
2023-08-20T04:51:28.375Z,100.00
2023-08-20T04:52:38.832Z,100.00
2023-08-20T04:53:41.911Z,100.00
2023-08-20T04:54:52.367Z,100.00
2023-08-20T04:55:55.404Z,100.00
2023-08-20T04:56:59.815Z,100.00
2023-08-20T04:58:04.237Z,100.00
2023-08-20T04:59:11.644Z,100.00
2023-08-20T05:00:15.335Z,100.00
2023-08-20T05:01:22.767Z,100.00
2023-08-20T05:02:27.854Z,100.00
2023-08-20T05:03:30.772Z,100.00
2023-08-20T05:04:35.197Z,100.00
2023-08-20T05:05:39.604Z,100.00
2023-08-20T05:06:44.036Z,100.00
2023-08-20T05:07:48.479Z,100.00
2023-08-20T05:08:52.923Z,100.00
2023-08-20T05:09:57.294Z,100.00
2023-08-20T05:11:01.838Z,100.00
2023-08-20T05:12:06.333Z,100.00
2023-08-20T05:13:10.651Z,100.00
2023-08-20T05:14:15.113Z,100.00
2023-08-20T05:15:22.566Z,100.00
2023-08-20T05:16:26.103Z,100.00
2023-08-20T05:17:30.689Z,100.00
2023-08-20T05:18:34.921Z,100.00
2023-08-20T05:19:39.438Z,100.00
2023-08-20T05:20:43.906Z,100.00
2023-08-20T05:21:48.346Z,100.00
2023-08-20T05:22:52.767Z,100.00
2023-08-20T05:23:57.231Z,100.00
2023-08-20T05:25:01.692Z,100.00
2023-08-20T05:26:12.125Z,100.00
2023-08-20T05:27:15.161Z,100.00
2023-08-20T05:28:19.625Z,100.00
2023-08-20T05:29:24.058Z,100.00
2023-08-20T05:30:28.510Z,100.00
2023-08-20T05:31:32.919Z,100.00
2023-08-20T05:32:37.594Z,100.00
2023-08-20T05:33:41.729Z,100.00
2023-08-20T05:34:46.114Z,100.00
2023-08-20T05:35:50.497Z,100.00
2023-08-20T05:36:55.040Z,100.00
2023-08-20T05:37:59.516Z,100.00
2023-08-20T05:39:18.096Z,100.00
2023-08-20T05:40:21.638Z,100.00
2023-08-20T05:41:25.972Z,100.00
2023-08-20T05:42:30.442Z,100.00
2023-08-20T05:43:34.895Z,100.00
2023-08-20T05:44:39.389Z,100.00
2023-08-20T05:45:43.747Z,100.00
2023-08-20T05:46:48.247Z,100.00
2023-08-20T05:47:52.856Z,100.00
2023-08-20T05:49:00.095Z,100.00
2023-08-20T05:50:17.625Z,100.00
2023-08-20T05:51:20.847Z,100.00
2023-08-20T05:52:25.273Z,100.00
2023-08-20T05:53:32.765Z,100.00
2023-08-20T05:54:36.423Z,100.00
2023-08-20T05:55:40.784Z,100.00
2023-08-20T05:56:45.153Z,100.00
2023-08-20T05:57:49.540Z,100.00
2023-08-20T05:58:54.047Z,100.00
2023-08-20T05:59:58.530Z,100.00
2023-08-20T06:01:02.996Z,100.00
2023-08-20T06:02:07.371Z,100.00
2023-08-20T06:03:11.869Z,100.00
2023-08-20T06:04:16.263Z,100.00
2023-08-20T06:05:20.722Z,100.00
2023-08-20T06:06:25.167Z,100.00
2023-08-20T06:07:35.571Z,100.00
2023-08-20T06:08:38.698Z,100.00
2023-08-20T06:09:43.092Z,100.00
2023-08-20T06:10:47.605Z,100.00
2023-08-20T06:11:52.017Z,100.00
2023-08-20T06:13:10.513Z,100.00
2023-08-20T06:14:13.929Z,100.00
2023-08-20T06:15:18.324Z,100.00
2023-08-20T06:16:22.878Z,100.00
2023-08-20T06:17:27.169Z,100.00
2023-08-20T06:18:31.593Z,100.00
2023-08-20T06:19:36.545Z,100.00
2023-08-20T06:20:40.566Z,100.00
2023-08-20T06:21:44.959Z,100.00
2023-08-20T06:24:17.009Z,100.00
2023-08-20T06:25:21.394Z,100.00
2023-08-20T06:26:25.769Z,100.00
2023-08-20T06:27:30.265Z,100.00
2023-08-20T06:28:34.692Z,100.00
2023-08-20T06:29:39.173Z,100.00
2023-08-20T06:30:43.638Z,100.00
2023-08-20T06:31:48.094Z,100.00
2023-08-20T06:32:52.513Z,100.00
2023-08-20T06:33:56.832Z,100.00
2023-08-20T06:35:01.375Z,100.00
2023-08-20T06:36:05.792Z,100.00
2023-08-20T06:37:10.181Z,100.00
2023-08-20T06:38:14.621Z,100.00
2023-08-20T06:39:19.102Z,100.00
2023-08-20T06:40:23.494Z,100.00
2023-08-20T06:41:27.878Z,100.00
2023-08-20T06:42:32.333Z,100.00
2023-08-20T06:43:36.754Z,100.00
2023-08-20T06:44:44.273Z,100.00
2023-08-20T06:45:47.905Z,100.00
2023-08-20T06:46:52.339Z,100.00
2023-08-20T06:47:56.673Z,100.00
2023-08-20T06:49:01.061Z,100.00
2023-08-20T06:50:05.485Z,100.00
2023-08-20T06:51:09.870Z,99.72
2023-08-20T06:52:14.228Z,99.34
2023-08-20T06:53:18.738Z,99.23
2023-08-20T06:54:23.069Z,99.25
2023-08-20T06:55:27.423Z,99.33
2023-08-20T06:56:46.825Z,99.10
2023-08-20T06:57:49.439Z,99.08
2023-08-20T06:58:53.957Z,99.19
2023-08-20T06:59:58.417Z,99.31
2023-08-20T07:01:02.857Z,99.32
2023-08-20T07:02:07.389Z,99.26
2023-08-20T07:03:11.875Z,99.03
2023-08-20T07:04:16.242Z,98.56
2023-08-20T07:05:20.651Z,98.20
2023-08-20T07:06:25.001Z,98.23
2023-08-20T07:07:29.451Z,98.16
2023-08-20T07:08:33.861Z,98.16
2023-08-20T07:09:38.249Z,98.26
2023-08-20T07:10:42.665Z,98.38
2023-08-20T07:11:48.630Z,98.22
2023-08-20T07:12:51.475Z,98.25
2023-08-20T07:13:55.936Z,98.18
2023-08-20T07:15:00.292Z,97.90
2023-08-20T07:16:04.736Z,97.86
2023-08-20T07:17:09.131Z,97.78
2023-08-20T07:18:13.578Z,97.81
2023-08-20T07:19:18.028Z,97.64
2023-08-20T07:20:22.367Z,97.34
2023-08-20T07:21:26.902Z,97.33
2023-08-20T07:22:31.268Z,97.37
2023-08-20T07:23:35.746Z,97.24
2023-08-20T07:24:40.166Z,97.27
2023-08-20T07:27:12.266Z,97.01
2023-08-20T07:28:16.592Z,96.73
2023-08-20T07:29:35.058Z,96.41
2023-08-20T07:30:38.296Z,96.35
2023-08-20T07:31:42.693Z,96.27
2023-08-20T07:32:47.109Z,96.30
2023-08-20T07:33:51.492Z,96.26
2023-08-20T07:34:55.953Z,96.02
2023-08-20T07:36:00.308Z,95.82
2023-08-20T07:37:04.758Z,95.75
2023-08-20T07:38:09.258Z,95.54
2023-08-20T07:39:18.651Z,95.42
2023-08-20T07:40:18.128Z,95.23
2023-08-20T07:41:22.623Z,94.73
2023-08-20T07:42:27.059Z,94.77
2023-08-20T07:43:31.425Z,94.63
2023-08-20T07:44:35.903Z,94.33
2023-08-20T07:45:40.376Z,94.08
2023-08-20T07:46:44.754Z,93.93
2023-08-20T07:47:49.283Z,93.87
2023-08-20T07:48:53.608Z,93.60
2023-08-20T07:49:58.048Z,93.74
2023-08-20T07:51:02.440Z,93.89
2023-08-20T07:52:06.862Z,94.00
2023-08-20T07:53:25.510Z,94.17
2023-08-20T07:54:28.958Z,94.27
2023-08-20T07:55:33.363Z,94.33
2023-08-20T07:56:37.712Z,94.23
2023-08-20T07:57:42.062Z,94.33
2023-08-20T07:58:46.590Z,94.48
2023-08-20T07:59:51.040Z,94.40
2023-08-20T08:00:55.613Z,94.09
2023-08-20T08:01:59.896Z,93.96
2023-08-20T08:03:04.448Z,93.75
2023-08-20T08:04:08.952Z,93.43
2023-08-20T08:05:13.248Z,93.34
2023-08-20T08:06:17.783Z,93.26
2023-08-20T08:07:22.195Z,93.41
2023-08-20T08:08:26.724Z,93.45
2023-08-20T08:09:31.080Z,93.33
2023-08-20T08:10:35.594Z,93.37
2023-08-20T08:11:40.077Z,93.53
2023-08-20T08:12:44.449Z,93.43
2023-08-20T08:13:48.861Z,93.06
2023-08-20T08:15:07.421Z,92.59
2023-08-20T08:16:10.742Z,92.08
2023-08-20T08:17:15.018Z,91.62
2023-08-20T08:18:19.551Z,91.42
2023-08-20T08:19:23.971Z,91.65
2023-08-20T08:20:28.317Z,91.67
2023-08-20T08:21:32.789Z,91.47
2023-08-20T08:22:37.156Z,91.28
2023-08-20T08:23:41.589Z,90.99
2023-08-20T08:24:46.086Z,90.76
2023-08-20T08:25:50.580Z,90.62
2023-08-20T08:26:54.975Z,90.89
2023-08-20T08:28:00.913Z,91.34
2023-08-20T08:29:03.753Z,91.44
2023-08-20T08:30:08.165Z,91.43
2023-08-20T08:31:12.724Z,91.04
2023-08-20T08:32:16.982Z,90.42
2023-08-20T08:33:21.538Z,89.82
2023-08-20T08:34:26.021Z,89.79
2023-08-20T08:35:30.338Z,89.95
2023-08-20T08:36:34.730Z,90.13
2023-08-20T08:37:39.144Z,90.36
2023-08-20T08:38:43.652Z,90.52
2023-08-20T08:39:48.024Z,90.83
2023-08-20T08:40:52.431Z,90.84
2023-08-20T08:41:56.953Z,90.97
2023-08-20T08:43:01.282Z,90.99
2023-08-20T08:44:05.729Z,90.68
2023-08-20T08:45:10.172Z,90.21
2023-08-20T08:46:14.609Z,90.40
2023-08-20T08:47:19.068Z,90.25
2023-08-20T08:48:23.541Z,90.25
2023-08-20T08:49:27.987Z,90.37
2023-08-20T08:50:32.419Z,90.51
2023-08-20T08:51:36.788Z,90.67
2023-08-20T08:52:41.230Z,90.54
2023-08-20T08:53:45.668Z,90.69
2023-08-20T08:54:50.158Z,90.77
2023-08-20T08:55:54.516Z,90.93
2023-08-20T08:56:58.955Z,90.71
2023-08-20T08:58:03.468Z,90.62
2023-08-20T08:59:07.886Z,90.47
2023-08-20T09:00:15.403Z,90.58
2023-08-20T09:01:19.048Z,90.76
2023-08-20T09:02:23.504Z,91.02
2023-08-20T09:03:27.916Z,91.24
2023-08-20T09:04:32.331Z,91.33
2023-08-20T09:05:36.784Z,91.07
2023-08-20T09:06:41.147Z,90.45
2023-08-20T09:07:45.664Z,90.09
2023-08-20T09:08:50.016Z,89.52
2023-08-20T09:09:54.439Z,89.26
2023-08-20T09:10:58.864Z,89.03
2023-08-20T09:12:03.282Z,89.01
2023-08-20T09:13:07.686Z,88.91
2023-08-20T09:14:12.197Z,88.88
2023-08-20T09:15:16.575Z,88.89
2023-08-20T09:16:20.997Z,89.00
2023-08-20T09:17:25.431Z,89.21
2023-08-20T09:18:29.841Z,89.13
2023-08-20T09:19:34.463Z,89.15
2023-08-20T09:20:38.740Z,89.00
2023-08-20T09:21:43.123Z,88.82
2023-08-20T09:22:47.548Z,88.82
2023-08-20T09:23:51.981Z,88.39
2023-08-20T09:24:56.405Z,87.81
2023-08-20T09:26:03.955Z,87.17
2023-08-20T09:27:07.660Z,87.18
2023-08-20T09:28:12.020Z,87.42
2023-08-20T09:29:16.522Z,87.51
2023-08-20T09:30:21.011Z,87.58
2023-08-20T09:31:25.375Z,87.44
2023-08-20T09:32:29.825Z,86.74
2023-08-20T09:33:34.214Z,86.35
2023-08-20T09:34:38.819Z,86.10
2023-08-20T09:35:43.236Z,86.16
2023-08-20T09:36:47.659Z,85.94
2023-08-20T09:37:52.063Z,86.01
2023-08-20T09:38:56.529Z,85.16
2023-08-20T09:40:00.985Z,85.03
2023-08-20T09:41:05.413Z,85.04
2023-08-20T09:42:09.829Z,84.77
2023-08-20T09:43:14.364Z,84.51
2023-08-20T09:44:18.707Z,84.32
2023-08-20T09:45:23.279Z,84.84
2023-08-20T09:46:27.741Z,85.17
2023-08-20T09:47:35.489Z,84.85
2023-08-20T09:48:38.755Z,84.35
2023-08-20T09:49:43.157Z,83.97
2023-08-20T09:50:47.575Z,84.20
2023-08-20T09:51:52.105Z,84.38
2023-08-20T09:52:57.364Z,84.15
2023-08-20T09:54:01.429Z,83.46
2023-08-20T09:55:05.819Z,83.17
2023-08-20T09:56:10.221Z,83.20
2023-08-20T09:57:14.750Z,83.49
2023-08-20T09:58:19.214Z,83.40
2023-08-20T09:59:23.596Z,83.20
2023-08-20T10:00:28.097Z,83.08
2023-08-20T10:01:32.501Z,83.44
2023-08-20T10:02:36.922Z,83.76
2023-08-20T10:03:41.319Z,83.98
2023-08-20T10:04:45.816Z,83.88
2023-08-20T10:05:50.172Z,84.01
2023-08-20T10:06:54.656Z,84.01
2023-08-20T10:07:59.039Z,83.87
2023-08-20T10:09:03.443Z,83.76
2023-08-20T10:10:07.995Z,83.41
2023-08-20T10:11:12.486Z,83.41
2023-08-20T10:12:16.945Z,83.31
2023-08-20T10:13:21.408Z,83.28
2023-08-20T10:14:25.872Z,83.46
2023-08-20T10:15:30.303Z,83.29
2023-08-20T10:16:34.733Z,82.89
2023-08-20T10:17:39.759Z,82.54
2023-08-20T10:18:43.663Z,82.74
2023-08-20T10:19:48.216Z,82.66
2023-08-20T10:20:52.728Z,82.45
2023-08-20T10:21:57.196Z,82.65
2023-08-20T10:23:01.579Z,82.69
2023-08-20T10:24:06.016Z,82.95
2023-08-20T10:25:10.491Z,83.05
2023-08-20T10:26:14.912Z,83.06
2023-08-20T10:27:19.449Z,83.02
2023-08-20T10:28:23.837Z,82.88
2023-08-20T10:29:28.363Z,82.74
2023-08-20T10:30:32.734Z,82.93
2023-08-20T10:31:37.209Z,82.35
2023-08-20T10:32:47.785Z,82.11
2023-08-20T10:33:50.770Z,81.61
2023-08-20T10:34:55.273Z,81.55
2023-08-20T10:35:59.847Z,82.13
2023-08-20T10:37:04.186Z,82.41
2023-08-20T10:38:08.726Z,82.42
2023-08-20T10:39:13.160Z,82.17
2023-08-20T10:40:20.598Z,82.22
2023-08-20T10:41:24.246Z,82.07
2023-08-20T10:42:28.705Z,82.10
2023-08-20T10:43:33.067Z,81.85
2023-08-20T10:44:37.510Z,81.38
2023-08-20T10:45:41.979Z,81.04
2023-08-20T10:46:46.466Z,80.59
2023-08-20T10:47:50.974Z,80.51
2023-08-20T10:48:55.449Z,80.54
2023-08-20T10:49:59.907Z,80.44
2023-08-20T10:51:04.297Z,80.70
2023-08-20T10:52:08.830Z,80.91
2023-08-20T10:53:13.250Z,80.82
2023-08-20T10:54:17.649Z,81.15
2023-08-20T10:55:22.153Z,81.54
2023-08-20T10:56:26.611Z,81.78
2023-08-20T10:57:31.125Z,82.02
2023-08-20T10:58:35.507Z,82.24
2023-08-20T10:59:40.033Z,82.48
2023-08-20T11:00:44.443Z,82.31
2023-08-20T11:01:48.957Z,82.09
2023-08-20T11:02:53.507Z,81.72
2023-08-20T11:03:57.833Z,81.59
2023-08-20T11:05:02.215Z,81.58
2023-08-20T11:06:06.807Z,81.44
2023-08-20T11:07:11.179Z,81.27
2023-08-20T11:08:15.615Z,81.18
2023-08-20T11:09:20.182Z,80.81
2023-08-20T11:10:24.657Z,81.15
2023-08-20T11:11:29.048Z,81.51
2023-08-20T11:12:33.573Z,81.31
2023-08-20T11:13:37.917Z,80.80
2023-08-20T11:14:42.719Z,80.33
2023-08-20T11:15:47.032Z,80.05
2023-08-20T11:16:51.612Z,80.34
2023-08-20T11:17:56.009Z,80.70
2023-08-20T11:19:00.502Z,81.01
2023-08-20T11:20:13.906Z,80.81
2023-08-20T11:21:09.455Z,80.88
2023-08-20T11:22:13.859Z,81.08
2023-08-20T11:23:18.332Z,81.22
2023-08-20T11:24:22.829Z,80.98
2023-08-20T11:25:27.402Z,80.88
2023-08-20T11:26:31.858Z,80.96
2023-08-20T11:27:36.553Z,80.82
2023-08-20T11:28:40.674Z,80.32
2023-08-20T11:29:45.232Z,79.35
2023-08-20T11:30:49.715Z,79.81
2023-08-20T11:31:54.086Z,80.05
2023-08-20T11:32:58.668Z,79.22
2023-08-20T11:34:02.979Z,78.62
2023-08-20T11:35:07.432Z,78.46
2023-08-20T11:36:11.895Z,78.02
2023-08-20T11:37:16.314Z,77.02
2023-08-20T11:38:20.704Z,77.56
2023-08-20T11:39:25.223Z,77.29
2023-08-20T11:40:29.779Z,77.73
2023-08-20T11:41:34.308Z,78.16
2023-08-20T11:42:38.797Z,78.41
2023-08-20T11:43:43.236Z,78.18
2023-08-20T11:44:47.768Z,76.83
2023-08-20T11:45:52.151Z,76.13
2023-08-20T11:46:56.765Z,76.25
2023-08-20T11:48:01.356Z,75.87
2023-08-20T11:49:05.704Z,75.83
2023-08-20T11:50:10.177Z,76.55
2023-08-20T11:51:14.561Z,77.13
2023-08-20T11:52:33.085Z,76.40
2023-08-20T11:53:36.308Z,77.17
2023-08-20T11:54:40.710Z,76.71
2023-08-20T11:55:45.208Z,76.10
2023-08-20T11:56:49.778Z,76.31
2023-08-20T11:57:54.290Z,75.02
2023-08-20T11:58:58.676Z,74.11
2023-08-20T12:00:03.259Z,73.54
2023-08-20T12:01:07.699Z,73.85
2023-08-20T12:02:12.408Z,74.45
2023-08-20T12:03:17.036Z,74.27
2023-08-20T12:04:24.379Z,74.34
2023-08-20T12:05:28.062Z,73.73
2023-08-20T12:06:32.441Z,72.40
2023-08-20T12:07:37.187Z,73.39
2023-08-20T12:08:41.457Z,71.98
2023-08-20T12:09:46.176Z,71.45
2023-08-20T12:10:50.381Z,70.49
2023-08-20T12:11:54.833Z,69.91
2023-08-20T12:12:59.457Z,70.30
2023-08-20T12:14:03.817Z,69.60
2023-08-20T12:15:09.356Z,69.54
2023-08-20T12:16:13.486Z,69.00
2023-08-20T12:17:17.930Z,69.98
2023-08-20T12:18:22.356Z,69.52
2023-08-20T12:19:26.864Z,68.69
2023-08-20T12:20:31.445Z,67.53
2023-08-20T12:21:35.842Z,66.43
2023-08-20T12:22:40.278Z,66.63
2023-08-20T12:23:44.832Z,66.09
2023-08-20T12:24:49.315Z,66.95
2023-08-20T12:25:53.791Z,67.08
2023-08-20T12:27:04.324Z,67.71
2023-08-20T12:28:07.494Z,67.66
2023-08-20T12:29:11.866Z,68.53
2023-08-20T12:30:16.269Z,68.28
2023-08-20T12:31:20.764Z,69.10
2023-08-20T12:32:26.192Z,68.07
2023-08-20T12:33:30.270Z,68.11
2023-08-20T12:34:34.715Z,68.68
2023-08-20T12:35:39.283Z,66.57
2023-08-20T12:36:43.778Z,65.31
2023-08-20T12:37:48.315Z,64.22
2023-08-20T12:38:52.699Z,64.21
2023-08-20T12:39:57.220Z,64.29
2023-08-20T12:41:01.844Z,64.46
2023-08-20T12:42:20.375Z,64.53
2023-08-20T12:43:23.566Z,65.36
2023-08-20T12:44:28.079Z,65.25
2023-08-20T12:45:32.538Z,65.40
2023-08-20T12:46:37.151Z,64.48
2023-08-20T12:47:44.574Z,63.59
2023-08-20T12:48:48.226Z,64.54
2023-08-20T12:49:52.644Z,65.44
2023-08-20T12:50:57.110Z,65.91
2023-08-20T12:52:01.550Z,63.92
2023-08-20T12:53:09.116Z,63.78
2023-08-20T12:54:12.906Z,64.66
2023-08-20T12:55:17.316Z,64.92
2023-08-20T12:56:21.974Z,64.47
2023-08-20T12:57:26.478Z,64.53
2023-08-20T12:58:30.945Z,65.46
2023-08-20T12:59:35.447Z,64.81
2023-08-20T13:00:39.953Z,65.56
2023-08-20T13:01:44.556Z,64.42
2023-08-20T13:02:49.110Z,64.78
2023-08-20T13:03:53.752Z,65.16
2023-08-20T13:04:58.093Z,64.03
2023-08-20T13:06:02.672Z,63.35
2023-08-20T13:07:10.118Z,63.17
2023-08-20T13:08:13.823Z,63.55
2023-08-20T13:09:18.239Z,63.84
2023-08-20T13:10:22.687Z,64.24
2023-08-20T13:11:27.464Z,64.24
2023-08-20T13:12:31.869Z,63.87
2023-08-20T13:13:36.321Z,64.17
2023-08-20T13:14:40.767Z,65.08
2023-08-20T13:15:45.413Z,65.66
2023-08-20T13:16:49.922Z,65.45
2023-08-20T13:17:54.404Z,64.04
2023-08-20T13:18:59.001Z,63.87
2023-08-20T13:20:03.597Z,63.73
2023-08-20T13:21:14.150Z,63.88
2023-08-20T13:22:17.364Z,64.27
2023-08-20T13:23:21.837Z,64.68
2023-08-20T13:24:26.318Z,65.00
2023-08-20T13:25:30.892Z,65.13
2023-08-20T13:26:35.292Z,64.84
2023-08-20T13:27:39.770Z,64.44
2023-08-20T13:28:44.290Z,64.13
2023-08-20T13:29:48.787Z,64.39
2023-08-20T13:30:53.395Z,65.02
2023-08-20T13:31:57.918Z,65.09
2023-08-20T13:33:02.691Z,65.86
2023-08-20T13:34:07.031Z,65.94
2023-08-20T13:35:14.632Z,66.30
2023-08-20T13:36:18.259Z,66.28
2023-08-20T13:37:22.688Z,66.50
2023-08-20T13:38:27.296Z,66.99
2023-08-20T13:39:31.672Z,67.05
2023-08-20T13:40:36.274Z,67.07
2023-08-20T13:41:40.645Z,67.38
2023-08-20T13:42:45.279Z,67.79
2023-08-20T13:43:49.854Z,67.13
2023-08-20T13:44:54.311Z,67.42
2023-08-20T13:45:58.897Z,67.82